• Join FlightAware (Why Join?)
  • Login
  • US Flag 
12:21AM EDT


 

Airport Tracker/Info


-or-


 

Live Flight TrackerFlight Track Log ✈ UPS2981 ✈ 01-Nov-2013 ✈ KBFI - KSDF

Flight Track Log - Related Links

Times and Time Zones

All times are in EDT time to prevent confusion due to time zone crossing. See the UPS2981 flight status page for this flight to view local times or setup timezone preferences in your user account.

Time Position Orientation Groundspeed Altitude Reporting Facility
EDT Latitude Longitude Course Direction KTS MPH feet Rate Location/Type
10:00AM 47.4937 -122.2680 149° Southeast 179 206 2,300  Level FlightAware ADS-B
10:00AM 47.4873 -122.2620 148° Southeast 193 222 2,600 1,500 Climbing FlightAware ADS-B
10:00AM 47.4851 -122.2590 137° Southeast 200 230 2,600 840 Level FlightAware ADS-B
10:00AM 47.4826 -122.2550 133° Southeast 207 238 2,700 2,520 Climbing FlightAware ADS-B
10:00AM 47.4806 -122.2510 126° Southeast 214 246 2,900 2,520 Climbing FlightAware ADS-B
10:00AM 47.4788 -122.2460 118° Southeast 217 250 3,000 2,520 Climbing FlightAware ADS-B
10:00AM 47.4775 -122.2420 116° Southeast 221 254 3,200 3,720 Climbing FlightAware ADS-B
10:00AM 47.4758 -122.2340 107° East 225 259 3,500 2,760 Climbing FlightAware ADS-B
10:01AM 47.4736 -122.2230 106° East 233 268 3,800 1,980 Climbing FlightAware ADS-B
10:01AM 47.4724 -122.2160 104° East 241 277 3,900 1,800 Climbing FlightAware ADS-B
10:01AM 47.4707 -122.2020 100° East 254 292 4,200 2,460 Climbing FlightAware ADS-B
10:01AM 47.4682 -122.1750 98° East 269 310 4,900 3,000 Climbing FlightAware ADS-B
10:01AM 47.4657 -122.1460 97° East 280 322 5,700 3,600 Climbing FlightAware ADS-B
10:01AM 47.4633 -122.1180 97° East 281 323 6,700 3,480 Climbing FlightAware ADS-B
10:02AM 47.4608 -122.0880 97° East 287 330 7,500 3,240 Climbing FlightAware ADS-B
10:02AM 47.4581 -122.0590 98° East 291 335 8,400 3,600 Climbing FlightAware ADS-B
10:02AM 47.4557 -122.0280 97° East 295 339 9,300 2,700 Climbing FlightAware ADS-B
10:03AM 47.4506 -121.9650 97° East 325 374 10,500 1,860 Climbing FlightAware ADS-B
10:03AM 47.4448 -121.8930 97° East 372 428 11,200 2,580 Climbing FlightAware ADS-B
10:04AM 47.4379 -121.8200 98° East 384 442 13,000 3,360 Climbing FlightAware ADS-B
10:04AM 47.4312 -121.7390 97° East 411 473 14,500 3,300 Climbing FlightAware ADS-B
10:05AM 47.4290 -121.6930 94° East 413 475 15,600 3,420 Climbing FlightAware ADS-B
10:05AM 47.4279 -121.6060 91° East 432 497 17,200 3,480 Climbing FlightAware ADS-B
10:05AM 47.4259 -121.5330 92° East 438 504 18,800 3,480 Climbing FlightAware ADS-B
10:06AM 47.4202 -121.4430 95° East 448 516 20,400 3,060 Climbing FlightAware ADS-B
10:06AM 47.4120 -121.3500 97° East 460 529 21,900 2,760 Climbing FlightAware ADS-B
10:07AM 47.4029 -121.2540 98° East 474 545 23,200 2,640 Climbing FlightAware ADS-B
10:07AM 47.3937 -121.1570 98° East 483 556 24,600 2,700 Climbing FlightAware ADS-B
10:08AM 47.3845 -121.0580 98° East 492 566 26,000 2,460 Climbing FlightAware ADS-B
10:08AM 47.3750 -120.9560 98° East 504 580 27,100 2,220 Climbing FlightAware ADS-B
10:09AM 47.3654 -120.8520 98° East 514 592 28,300 2,340 Climbing FlightAware ADS-B
10:09AM 47.3556 -120.7470 98° East 521 600 29,500 2,400 Climbing FlightAware ADS-B
10:10AM 47.3455 -120.6400 98° East 526 605 30,700 2,580 Climbing FlightAware ADS-B
10:10AM 47.3353 -120.5330 98° East 524 603 32,100 2,100 Climbing FlightAware ADS-B
10:11AM 47.3248 -120.4250 98° East 539 620 32,800 1,500 Climbing FlightAware ADS-B
10:11AM 47.3141 -120.3160 98° East 547 629 33,600 1,680 Climbing FlightAware ADS-B
10:12AM 47.3022 -120.1970 98° East 550 633 34,600 1,680 Climbing FlightAware ADS-B
10:13AM 47.2910 -120.0850 98° East 552 635 35,400 1,560 Climbing FlightAware ADS-B
10:13AM 47.2798 -119.9730 98° East 553 636 36,200 1,680 Climbing FlightAware ADS-B
10:14AM 47.2683 -119.8610 99° East 554 638 37,100 1,560 Climbing FlightAware ADS-B
10:14AM 47.2566 -119.7480 99° East 553 636 37,800 1,440 Climbing FlightAware ADS-B
10:15AM 47.2450 -119.6370 99° East 548 631 38,600 1,260 Climbing FlightAware ADS-B
10:15AM 47.2334 -119.5270 99° East 542 624 39,100 360 Climbing FlightAware ADS-B
10:16AM 47.2215 -119.4150 99° East 536 617 39,000  Descending FlightAware ADS-B
10:16AM 47.2116 -119.3070 98° East 536 617 39,100 60 Climbing FlightAware ADS-B
10:17AM 47.2000 -119.1030 95° East 539 620 39,100  Level FlightAware
10:18AM 47.1930 -118.9590 94° East 540 621 39,100  Level FlightAware
10:18AM 47.1840 -118.7950 95° East 542 624 39,100  Level FlightAware
10:19AM 47.1740 -118.6190 95° East 544 626 39,100  Level FlightAware
10:20AM 47.1660 -118.4620 94° East 544 626 39,100  Level FlightAware
10:21AM 47.1580 -118.3250 95° East 543 625 39,100  Level FlightAware
10:21AM 47.1470 -118.1460 95° East 543 625 39,100  Level FlightAware
10:22AM 47.1400 -118.0230 95° East 542 624 39,100  Level FlightAware
10:23AM 47.1310 -117.8760 95° East 542 624 39,100  Level FlightAware
10:23AM 47.1220 -117.7340 95° East 541 623 39,100  Level FlightAware
10:24AM 47.1140 -117.6140 96° East 540 621 39,100  Level FlightAware
10:24AM 47.1060 -117.5070 96° East 541 623 39,100  Level FlightAware
10:25AM 47.0910 -117.3490 98° East 541 623 39,100  Level FlightAware
10:26AM 47.0760 -117.1980 98° East 541 623 39,100  Level FlightAware
10:27AM 47.0620 -117.0460 98° East 541 623 39,100  Level FlightAware
10:27AM 47.0510 -116.9320 98° East 541 623 39,100  Level FlightAware
10:28AM 47.0370 -116.7860 98° East 541 623 39,100  Level FlightAware
10:29AM 47.0260 -116.6750 98° East 541 623 39,100  Level FlightAware
10:29AM 47.0150 -116.5610 98° East 541 623 39,100  Level FlightAware
10:30AM 47.0050 -116.4520 98° East 541 623 39,100  Level FlightAware
10:31AM 46.9900 -116.3010 98° East 541 623 39,100  Level FlightAware
10:31AM 46.9830 -116.2270 98° East 541 623 39,100  Level FlightAware
10:32AM 46.9730 -116.1160 97° East 541 623 39,100  Level FlightAware
10:33AM 46.9580 -115.9650 98° East 541 623 39,100  Level FlightAware
10:33AM 46.9470 -115.8530 98° East 541 623 39,100  Level FlightAware
10:34AM 46.9340 -115.7080 97° East 541 623 39,100  Level FlightAware
10:34AM 46.9300 -115.6710 99° East 541 623 39,100  Level FlightAware
10:39AM 46.5790 -114.2640 109° East 547 629 39,100  Level FlightAware
10:40AM 46.5600 -114.1590 105° East 547 629 39,100  Level FlightAware
10:41AM 46.5170 -113.9240 105° East 546 628 39,100  Level FlightAware
10:42AM 46.4900 -113.7790 105° East 546 628 39,100  Level FlightAware
10:42AM 46.4630 -113.6340 105° East 545 627 39,100  Level FlightAware
10:43AM 46.4330 -113.4750 105° East 547 629 39,100  Level FlightAware
10:44AM 46.4040 -113.3200 105° East 543 625 39,100  Level FlightAware
10:45AM 46.3780 -113.1870 106° East 543 625 39,100  Level FlightAware
10:45AM 46.3550 -113.0630 105° East 544 626 39,100  Level FlightAware
10:46AM 46.3190 -112.8780 106° East 544 626 39,100  Level FlightAware
10:47AM 46.2780 -112.6720 106° East 542 624 39,100  Level FlightAware
10:48AM 46.2460 -112.5100 106° East 547 629 39,100 -60 Level FlightAware
10:49AM 46.2080 -112.3200 106° East 548 631 39,000  Descending FlightAware
10:49AM 46.1830 -112.1920 106° East 545 627 39,100  Climbing FlightAware
10:50AM 46.1570 -112.0640 106° East 546 628 39,000  Descending FlightAware
10:50AM 46.1320 -111.9420 106° East 544 626 39,100 60 Climbing FlightAware
10:51AM 46.1030 -111.7980 106° East 545 627 39,100  Level FlightAware
10:52AM 46.0780 -111.6770 107° East 546 628 39,100  Level FlightAware
10:52AM 46.0490 -111.5390 107° East 544 626 39,100  Level FlightAware
10:53AM 46.0170 -111.3830 106° East 544 626 39,100  Level FlightAware
10:54AM 45.9930 -111.2710 107° East 544 626 39,100 -120 Level FlightAware
10:54AM 45.9580 -111.1050 107° East 543 625 39,000  Descending FlightAware
10:55AM 45.9260 -110.9540 107° East 541 623 39,100 60 Climbing FlightAware
10:56AM 45.9020 -110.8400 107° East 542 624 39,100  Level FlightAware
10:56AM 45.8690 -110.6890 107° East 541 623 39,100  Level FlightAware
10:57AM 45.8390 -110.5510 107° East 542 624 39,100  Level FlightAware
10:58AM 45.8080 -110.4090 107° East 544 626 39,100  Level FlightAware
10:59AM 45.7720 -110.2440 107° East 544 626 39,100  Level FlightAware
10:59AM 45.7350 -110.0780 108° East 542 624 39,100  Level FlightAware
11:00AM 45.7010 -109.9260 108° East 540 621 39,100 -120 Level FlightAware
11:01AM 45.6650 -109.7640 108° East 539 620 39,000  Descending FlightAware
11:02AM 45.6330 -109.6240 108° East 541 623 39,100 60 Climbing FlightAware
11:02AM 45.6010 -109.4860 108° East 537 618 39,100  Level FlightAware
11:03AM 45.5610 -109.3130 108° East 538 619 39,100  Level FlightAware
11:04AM 45.5360 -109.2030 108° East 536 617 39,100  Level FlightAware
11:05AM 45.5010 -109.0520 108° East 534 615 39,100  Level FlightAware
11:05AM 45.4700 -108.9220 109° East 534 615 39,100  Level FlightAware
11:06AM 45.4300 -108.7500 108° East 533 613 39,100  Level FlightAware
11:07AM 45.4020 -108.6340 109° East 534 615 39,100  Level FlightAware
11:07AM 45.3730 -108.5100 108° East 534 615 39,100  Level FlightAware
11:08AM 45.3400 -108.3760 109° East 533 613 39,100  Level FlightAware
11:09AM 45.3070 -108.2380 109° East 533 613 39,100  Level FlightAware
11:09AM 45.2820 -108.1360 109° East 533 613 39,100  Level FlightAware
11:10AM 45.2570 -108.0330 109° East 534 615 39,100  Level FlightAware
11:10AM 45.2290 -107.9170 109° East 534 615 39,100  Level FlightAware
11:10AM 45.2220 -107.8880 109° East 534 615 39,100  Level FlightAware
11:12AM 45.1580 -107.6300 109° East 534 615 39,100  Level FlightAware
11:12AM 45.1190 -107.4730 109° East 534 615 39,100  Level FlightAware
11:13AM 45.0840 -107.3380 110° East 533 613 39,100  Level FlightAware
11:14AM 45.0550 -107.2200 109° East 533 613 39,100  Level FlightAware
11:14AM 45.0180 -107.0770 110° East 534 615 39,100  Level FlightAware
11:16AM 44.9650 -106.8700 110° East 536 617 39,100  Level FlightAware
11:16AM 44.9290 -106.7270 110° East 536 617 39,100  Level FlightAware
11:17AM 44.9030 -106.6280 110° East 535 616 39,100  Level FlightAware
11:17AM 44.8720 -106.5110 110° East 534 615 39,100  Level FlightAware
11:18AM 44.8400 -106.3900 110° East 535 616 39,100  Level FlightAware
11:19AM 44.7990 -106.2310 110° East 535 616 39,100  Level FlightAware
11:19AM 44.7700 -106.1240 111° Southeast 535 616 39,100  Level FlightAware
11:20AM 44.7440 -106.0270 111° Southeast 535 616 39,100  Level FlightAware
11:21AM 44.7090 -105.8950 110° East 534 615 39,100  Level FlightAware
11:21AM 44.6740 -105.7660 111° Southeast 535 616 39,100  Level FlightAware
11:22AM 44.6480 -105.6690 111° Southeast 538 619 39,100  Level FlightAware
11:22AM 44.6130 -105.5390 111° Southeast 538 619 39,100  Level FlightAware
11:23AM 44.5790 -105.4170 111° Southeast 540 621 39,100  Level FlightAware
11:24AM 44.5380 -105.2670 111° Southeast 542 624 39,100  Level FlightAware
11:24AM 44.5180 -105.1940 111° Southeast 541 623 39,100  Level FlightAware
11:25AM 44.4800 -105.0460 110° East 541 623 39,100  Level FlightAware
11:26AM 44.4340 -104.8900 112° Southeast 540 621 39,100  Level FlightAware
11:26AM 44.4070 -104.7900 111° Southeast 540 621 39,100  Level FlightAware
11:27AM 44.3900 -104.7290 111° Southeast 540 621 39,100  Level FlightAware
11:28AM 44.3530 -104.5940 111° Southeast 540 621 39,100  Level FlightAware
11:28AM 44.3240 -104.4880 111° Southeast 540 621 39,100  Level FlightAware
11:29AM 44.2980 -104.3940 111° Southeast 540 621 39,100  Level FlightAware
11:30AM 44.2610 -104.2610 111° Southeast 540 621 39,100  Level FlightAware
11:30AM 44.2330 -104.1590 111° Southeast 540 621 39,100  Level FlightAware
11:31AM 44.2060 -104.0590 111° Southeast 540 621 39,100  Level FlightAware
11:31AM 44.1780 -103.9600 111° Southeast 540 621 39,100  Level FlightAware
11:32AM 44.1500 -103.8570 111° Southeast 540 621 39,100  Level FlightAware
11:33AM 44.1240 -103.7630 111° Southeast 540 621 39,100  Level FlightAware
11:33AM 44.0950 -103.6590 111° Southeast 540 621 39,100  Level FlightAware
11:34AM 44.0590 -103.5260 111° Southeast 540 621 39,100  Level FlightAware
11:35AM 44.0310 -103.4270 111° Southeast 540 621 39,100  Level FlightAware
11:35AM 44.0040 -103.3280 111° Southeast 540 621 39,100  Level FlightAware
11:37AM 43.8317 -102.8350 111° Southeast 531 611 39,100  Level Minneapolis Center
11:38AM 43.7769 -102.6467 112° Southeast 532 612 39,100  Level Minneapolis Center
11:39AM 43.7119 -102.4353 113° Southeast 533 613 39,100  Level Denver Center
11:40AM 43.6461 -102.2236 113° Southeast 536 617 39,100  Level Denver Center
11:41AM 43.5908 -102.0464 113° Southeast 537 618 39,100  Level Denver Center
11:42AM 43.5314 -101.8581 113° Southeast 536 617 39,100  Level Denver Center
11:43AM 43.4719 -101.6692 113° Southeast 539 620 39,100  Level Denver Center
11:44AM 43.4014 -101.4492 114° Southeast 527 606 39,100  Level Denver Center
11:49AM 43.0930 -100.5020 114° Southeast 529 609 39,100  Level FlightAware
11:50AM 43.0600 -100.4010 114° Southeast 529 609 39,100  Level FlightAware
11:50AM 43.0130 -100.2600 114° Southeast 526 605 39,100  Level FlightAware
11:51AM 42.9570 -100.0900 114° Southeast 526 605 39,100  Level FlightAware
11:52AM 42.8910 -99.9000 115° Southeast 528 608 39,100  Level FlightAware
11:53AM 42.8410 -99.7510 115° Southeast 531 611 39,100  Level FlightAware
11:54AM 42.8120 -99.6660 115° Southeast 529 609 39,100  Level FlightAware
11:54AM 42.7720 -99.5520 116° Southeast 527 606 39,100  Level FlightAware
11:55AM 42.7430 -99.4660 115° Southeast 527 606 39,100  Level FlightAware
11:56AM 42.6840 -99.2950 115° Southeast 530 610 39,100  Level FlightAware
11:56AM 42.6450 -99.1850 116° Southeast 531 611 39,100  Level FlightAware
11:57AM 42.5888 -99.0223 115° Southeast 532 612 39,100  Level FlightAware ADS-B
11:58AM 42.5580 -98.9360 116° Southeast 532 612 39,100  Level FlightAware
11:58AM 42.5130 -98.8070 115° Southeast 532 612 39,100  Level FlightAware
11:59AM 42.4740 -98.6980 116° Southeast 532 612 39,100  Level FlightAware
12:00PM 42.4200 -98.5620 118° Southeast 531 611 39,100  Level FlightAware
12:00PM 42.3694 -98.4466 121° Southeast 532 612 39,100  Level FlightAware ADS-B
12:01PM 42.2940 -98.2710 120° Southeast 531 611 39,100  Level FlightAware
12:02PM 42.2550 -98.1800 120° Southeast 530 610 39,100  Level FlightAware
12:02PM 42.2155 -98.0877 120° Southeast 531 611 39,100  Level FlightAware ADS-B
12:03PM 42.2072 -98.0684 120° Southeast 531 611 39,100  Level FlightAware ADS-B
12:04PM 42.1238 -97.8735 120° Southeast 531 611 39,100  Level FlightAware ADS-B
12:05PM 42.0640 -97.7347 120° Southeast 531 611 39,100  Level FlightAware ADS-B
12:06PM 41.9360 -97.4410 120° Southeast 532 612 39,100  Level FlightAware
12:07PM 41.8940 -97.3460 121° Southeast 532 612 39,100  Level FlightAware
12:07PM 41.8480 -97.2420 121° Southeast 533 613 39,100  Level FlightAware
12:08PM 41.8040 -97.1410 120° Southeast 533 613 39,100  Level FlightAware
12:08PM 41.7680 -97.0600 121° Southeast 532 612 39,100  Level FlightAware
12:09PM 41.7070 -96.9230 121° Southeast 531 611 39,100  Level FlightAware
12:10PM 41.6580 -96.8140 121° Southeast 532 612 39,100  Level FlightAware
12:10PM 41.6210 -96.7320 121° Southeast 532 612 39,100  Level FlightAware
12:11PM 41.5720 -96.6210 121° Southeast 532 612 39,100  Level FlightAware
12:12PM 41.5330 -96.5370 122° Southeast 532 612 39,100  Level FlightAware
12:12PM 41.4700 -96.3960 121° Southeast 529 609 39,100  Level FlightAware
12:13PM 41.4060 -96.2570 122° Southeast 529 609 39,100  Level FlightAware
12:14PM 41.3456 -96.1237 121° Southeast 528 608 39,100  Level FlightAware ADS-B
12:15PM 41.2990 -96.0230 122° Southeast 526 605 39,100  Level FlightAware
12:16PM 41.2309 -95.8744 121° Southeast 525 604 39,100  Level FlightAware ADS-B
12:17PM 41.1580 -95.7100 120° Southeast 525 604 39,100  Level FlightAware
12:17PM 41.1120 -95.5890 117° Southeast 525 604 39,100  Level FlightAware
12:18PM 41.0760 -95.4940 117° Southeast 525 604 39,100  Level FlightAware
12:18PM 41.0390 -95.3970 117° Southeast 525 604 39,100  Level FlightAware
12:19PM 40.9920 -95.2720 116° Southeast 525 604 39,100  Level FlightAware
12:20PM 40.9620 -95.1930 117° Southeast 526 605 39,100  Level FlightAware
12:20PM 40.9100 -95.0550 116° Southeast 526 605 39,100  Level FlightAware
12:21PM 40.8600 -94.9240 117° Southeast 527 606 39,100  Level FlightAware
12:22PM 40.8150 -94.8070 117° Southeast 528 608 39,100  Level FlightAware
12:22PM 40.7690 -94.6890 117° Southeast 529 609 39,100  Level FlightAware
12:23PM 40.7150 -94.5510 117° Southeast 529 609 39,100  Level FlightAware
12:24PM 40.6620 -94.4150 117° Southeast 530 610 39,100  Level FlightAware
12:25PM 40.6190 -94.3040 117° Southeast 529 609 39,100  Level FlightAware
12:25PM 40.5800 -94.2050 117° Southeast 531 611 39,100  Level FlightAware
12:26PM 40.5370 -94.0960 117° Southeast 531 611 39,100  Level FlightAware
12:27PM 40.4950 -93.9900 117° Southeast 531 611 39,100  Level FlightAware
12:27PM 40.4400 -93.8530 118° Southeast 531 611 39,100  Level FlightAware
12:28PM 40.4240 -93.8100 116° Southeast 531 611 39,100  Level FlightAware
12:29PM 40.3620 -93.6560 118° Southeast 531 611 39,100  Level FlightAware
12:29PM 40.3070 -93.5180 118° Southeast 532 612 39,100  Level FlightAware
12:30PM 40.2590 -93.4000 118° Southeast 532 612 39,100  Level FlightAware
12:31PM 40.2110 -93.2820 118° Southeast 532 612 39,100  Level FlightAware
12:31PM 40.1750 -93.1930 118° Southeast 533 613 39,100  Level FlightAware
12:32PM 40.0880 -92.9810 118° Southeast 534 615 39,100  Level FlightAware
12:33PM 40.0360 -92.8530 118° Southeast 534 615 39,100  Level FlightAware
12:34PM 39.9900 -92.7440 119° Southeast 534 615 39,100  Level FlightAware
12:35PM 39.9460 -92.6350 118° Southeast 534 615 39,100  Level FlightAware
12:35PM 39.9050 -92.5360 118° Southeast 534 615 39,100  Level FlightAware
12:36PM 39.8700 -92.4490 118° Southeast 534 615 39,100  Level FlightAware
12:36PM 39.8340 -92.3620 118° Southeast 534 615 39,100  Level FlightAware
12:37PM 39.7870 -92.2460 118° Southeast 534 615 39,100  Level FlightAware
12:38PM 39.7280 -92.1020 118° Southeast 534 615 39,100  Level FlightAware
12:39PM 39.6920 -92.0150 118° Southeast 534 615 39,100  Level FlightAware
12:39PM 39.6570 -91.9280 118° Southeast 534 615 39,100  Level FlightAware
12:40PM 39.6210 -91.8410 118° Southeast 534 615 39,100  Level FlightAware
12:41PM 39.5850 -91.7520 118° Southeast 534 615 39,100  Level FlightAware
12:41PM 39.5370 -91.6370 118° Southeast 534 615 39,100  Level FlightAware
12:42PM 39.5020 -91.5500 118° Southeast 534 615 39,100  Level FlightAware
12:43PM 39.4650 -91.4620 119° Southeast 534 615 39,100  Level FlightAware
12:43PM 39.4440 -91.4090 117° Southeast 534 615 39,100  Level FlightAware
12:46PM 39.1380 -90.7470 121° Southeast 533 613 39,100  Level FlightAware
12:47PM 39.0810 -90.6200 120° Southeast 533 613 39,100  Level FlightAware
12:47PM 39.0290 -90.5010 119° Southeast 534 615 39,100  Level FlightAware
12:48PM 38.9940 -90.4210 119° Southeast 533 613 39,100  Level FlightAware
12:48PM 38.9440 -90.3090 120° Southeast 534 615 39,100  Level FlightAware
12:49PM 38.9210 -90.2590 121° Southeast 533 613 39,100  Level FlightAware
12:50PM 38.8520 -90.1040 120° Southeast 533 613 39,100  Level FlightAware
12:50PM 38.8160 -90.0250 120° Southeast 534 615 39,100  Level FlightAware
12:51PM 38.7670 -89.9160 120° Southeast 534 615 39,100  Level FlightAware
12:51PM 38.7290 -89.8330 120° Southeast 535 616 39,100  Level FlightAware
12:52PM 38.6800 -89.7250 120° Southeast 534 615 39,100 -420 Level FlightAware
12:53PM 38.6310 -89.6180 120° Southeast 532 612 38,600 -960 Descending FlightAware
12:53PM 38.5890 -89.5250 120° Southeast 531 611 38,000 -1,020 Descending FlightAware
12:54PM 38.5070 -89.3470 120° Southeast 528 608 36,900 -960 Descending FlightAware
12:55PM 38.4680 -89.2640 121° Southeast 525 604 36,500 -960 Descending FlightAware
12:56PM 38.4270 -89.1520 115° Southeast 528 608 35,800 -1,680 Descending FlightAware
12:56PM 38.4150 -89.0520 99° East 533 613 34,500 -2,820 Descending FlightAware
12:57PM 38.4090 -88.9380 94° East 542 624 32,600 -2,880 Descending FlightAware
12:57PM 38.4050 -88.8270 93° East 537 618 31,100 -2,400 Descending FlightAware
12:58PM 38.4000 -88.6990 93° East 525 604 29,600 -1,680 Descending FlightAware
12:58PM 38.3960 -88.5930 93° East 513 590 29,000 -480 Descending FlightAware
12:59PM 38.3910 -88.4960 94° East 507 583 29,100 60 Climbing FlightAware
01:00PM 38.3850 -88.3680 93° East 512 589 29,100  Level FlightAware
01:00PM 38.3810 -88.2830 93° East 515 593 29,100  Level FlightAware
01:01PM 38.3760 -88.1830 94° East 517 595 29,100  Level FlightAware
01:02PM 38.3660 -87.9780 93° East 521 600 29,100 -180 Level FlightAware
01:02PM 38.3610 -87.8900 94° East 521 600 28,900 -1,500 Descending FlightAware
01:03PM 38.3540 -87.7580 94° East 510 587 27,300 -2,400 Descending FlightAware
01:04PM 38.3500 -87.6800 94° East 503 579 26,200 -2,400 Descending FlightAware
01:04PM 38.3450 -87.5710 93° East 489 563 24,800 -1,800 Descending FlightAware
01:05PM 38.3320 -87.3890 95° East 457 526 23,100 -1,020 Descending FlightAware
01:06PM 38.3010 -87.3020 114° Southeast 436 502 23,100  Level FlightAware
01:06PM 38.2450 -87.2410 139° Southeast 407 468 23,100  Level FlightAware
01:07PM 38.2180 -87.2280 159° South 394 453 23,100  Level FlightAware
01:07PM 38.1680 -87.2220 175° South 376 433 23,100  Level FlightAware
01:08PM 38.1270 -87.2230 181° South 375 432 23,100 -1,080 Level FlightAware
01:08PM 38.0650 -87.2030 166° South 387 445 22,000 -1,860 Descending FlightAware
01:09PM 38.0270 -87.1580 137° Southeast 412 474 21,000 -2,220 Descending FlightAware
01:09PM 38.0090 -87.0760 106° East 437 503 19,800 -2,340 Descending FlightAware
01:10PM 38.0420 -86.9640 69° East 440 506 18,000 -2,400 Descending FlightAware
01:11PM 38.0670 -86.9020 63° Northeast 437 503 16,900 -2,400 Descending FlightAware
01:11PM 38.1100 -86.8030 61° Northeast 436 502 15,000 -2,520 Descending FlightAware
01:12PM 38.1420 -86.7280 62° Northeast 434 499 13,600 -2,280 Descending FlightAware
01:13PM 38.1970 -86.5860 64° Northeast 411 473 11,500 -1,620 Descending FlightAware
01:13PM 38.2150 -86.5220 70° East 386 444 11,100 -840 Descending FlightAware
01:14PM 38.2340 -86.4400 74° East 349 402 10,500 -840 Descending FlightAware
01:14PM 38.2430 -86.4020 73° East 333 383 10,300 -1,140 Descending FlightAware
01:15PM 38.2640 -86.3080 74° East 328 377 9,200 -1,440 Descending FlightAware
01:16PM 38.2800 -86.2350 74° East 317 365 8,200 -1,620 Descending FlightAware
01:17PM 38.2930 -86.1660 76° East 304 350 7,100 -1,800 Descending FlightAware
01:17PM 38.2960 -86.0940 87° East 285 328 5,800 -1,560 Descending FlightAware
01:18PM 38.2980 -86.0420 87° East 256 295 5,200 -1,260 Descending FlightAware
01:18PM 38.3000 -85.9950 87° East 260 299 4,500 -1,140 Descending FlightAware
01:19PM 38.3030 -85.9430 86° East 252 290 4,000 -720 Descending FlightAware
01:20PM 38.3060 -85.8920 86° East 239 275 3,700 -600 Descending FlightAware
01:20PM 38.3060 -85.8720 90° East 233 268 3,500 -540 Descending FlightAware
01:21PM 38.2950 -85.8010 101° East 185 213 3,100 -660 Descending FlightAware
01:21PM 38.2730 -85.7790 142° Southeast 150 173 2,500 -960 Descending FlightAware
01:22PM 38.2550 -85.7710 161° South 142 163 2,100 -780 Descending FlightAware
01:23PM 38.2280 -85.7630 167° South 133 153 1,600 -720 Descending FlightAware
01:23PM 38.2010 -85.7530 164° South 128 147 1,100 -720 Descending FlightAware
01:24PM 38.1820 -85.7470 166° South 134 154 700 -720 Descending FlightAware